Cameron Park, New South Wales

12:59 AM AEDT on March 04, 2015 (GMT +1100)
INEWSOUT101 | Change Station
CLOSE
Current Station
Personal Weather Station
Location: Edgeworth, NEW SOUTH WALES
Elevation: 95 ft
Nearby Weather Stations

Elev 95 ft 32.92 °S, 151.62 °E | Updated 4 minutes ago

Clear
Clear
72.7 °F
Feels Like 73 °F
N
0.0
Wind Variable Wind from SSE
Gusts 1.0 mph

Today
High -- | Low -- °F
--% Chance of Precip.
Yesterday
High -- | Low -- °F
Precip. -- in
6:43 AM 7:26 PM
Waxing Gibbous, 96% visible
Pressure 29.89 in
Visibility 6.2 miles
Clouds
Heat Index 73 °F
Dew Point 65 °F
Humidity 78%
Rainfall 0.00 in
Snow Depth Not available.
UV Not available.
Pollen Not available.
Air Quality Not available.
Flu Activity Not available.
METAR YWLM 031330Z AUTO 00000KT 9999 // NCD 22/19 Q1012

More Conditions Fewer Conditions

Pressure 29.89 in
Visibility 6.2 miles
Clouds
Heat Index 73 °F
Dew Point 65 °F
Humidity 78%
Rainfall 0.00 in
Snow Depth Not available.
UV Not available.
Pollen Not available.
Air Quality Not available.
Flu Activity Not available.
METAR YWLM 031330Z AUTO 00000KT 9999 // NCD 22/19 Q1012

More Conditions Fewer Conditions

10-Day Weather Forecast

Almanac

Astronomy

Mar. 04, 2015 Rise Set
Actual Time
Civil Twilight
Nautical Twilight
Astronomical Twilight
Moon
Length of Visible Light
Length of Day
Tomorrow will be .
, % of the Moon is Illuminated

Today's Extremes

Country Highs Country Lows

Community

WunderPhotos

Upload Photos

1,802,102 photos uploaded!

WunderBlogs® & News

Nearby

Air Quality

  Air Quality AQ Index Pollutant
Not available.

Snow Depth

Station Depth Elevation

Earthquake Activity

City Distance Mag. Time & Date
Minimum magnitude displayed is 2.5.

Coastal Water Temperatures

Place Temperature

Nearby Weather Stations